Impacts METAR Board
IDs:

KPHL - Philadelphia Intl, PA, US

Updated at: 1300 UTC 13 Dec 2018
Potential Impact None Slight Moderate High
Time 13/01Z 13/02Z 13/03Z 13/04Z 13/05Z 13/06Z 13/07Z 13/08Z 13/09Z 13/10Z 13/11Z 13/12Z 13/13Z
Temp34 34 36 33 33 33 34 35 35 36 37 38 39
Dewpt24 25 24 25 25 25 25 25 26 27 28 28 30
Altim30.23 30.23 30.24 30.25 30.26 30.26 30.28 30.29 30.27 30.28 30.29 30.30 30.32
VIS10 10 10 10 10 10 10 10 10 10 10 10 10
CIG140 -- 150 180 110 110 190 190 80 70 70 65 65
CoverBKNSCTOVCOVCOVCOVCBKNBKNBKNOVCOVCOVCOVC
FltCatVFRVFRVFRVFRVFRVFRVFRVFRVFRVFRVFRVFRVFR
WX--------------------------
WDir0110170708010030908080907080
WSpd0 5 3 4 3 6 3 3 7 7 6 6 7
WGst-- -- -- -- -- -- -- -- -- -- -- -- --
Raw hourly METARs
KPHL 130054Z 00000KT 10SM BKN140 01/M04 A3023 RMK AO2 SLP237 T00111044 $
KPHL 130154Z 11005KT 10SM FEW140 SCT200 01/M04 A3023 RMK AO2 SLP235 T00111039 $
KPHL 130254Z 17003KT 10SM BKN150 OVC220 02/M04 A3024 RMK AO2 SLP239 T00221044 51010 $
KPHL 130354Z 07004KT 10SM BKN180 OVC230 01/M04 A3025 RMK AO2 SLP243 T00061039 $
KPHL 130454Z 08003KT 10SM BKN110 OVC180 01/M04 A3026 RMK AO2 SLP246 T00061039 400671006 $
KPHL 130554Z 10006KT 10SM BKN110 OVC190 01/M04 A3026 RMK AO2 SLP245 T00061039 10033 20000 50005 $
KPHL 130654Z 03003KT 10SM BKN190 BKN250 01/M04 A3028 RMK AO2 SLP252 T00111039 $
KPHL 130754Z 09003KT 10SM BKN190 BKN250 02/M04 A3029 RMK AO2 SLP255 T00171039 $
KPHL 130854Z 08007KT 10SM BKN080 BKN170 02/M03 A3027 RMK AO2 SLP251 T00171033 50006 $
KPHL 130954Z 08007KT 10SM OVC070 02/M03 A3028 RMK AO2 SLP252 T00221028 $
KPHL 131054Z 09006KT 10SM OVC070 03/M02 A3029 RMK AO2 SLP256 T00281022 $
KPHL 131154Z 07006KT 10SM OVC065 03/M02 A3030 RMK AO2 SLP261 T00331022 10033 20000 53009 $
KPHL 131254Z 08007KT 10SM OVC065 04/M01 A3032 RMK AO2 SLP265 T00391011



Page loaded:  13:20 UTC  |   05:20 AM Pacific  |   06:20 AM Mountain  |   07:20 AM Central  |   08:20 AM Eastern

 

ADVISORIES

FORECASTS

FORECASTS

OBSERVATIONS

USER TOOLS

ABOUT US